sensor_id;sensor_type;location;lat;lon;timestamp;pressure;altitude;pressure_sealevel;temperature;humidity
58534;BME280;44109;52.398;7.024;2023-01-31T00:01:50;102015.72;;;2.98;100.00
58534;BME280;44109;52.398;7.024;2023-01-31T00:04:18;102021.91;;;3.09;100.00
58534;BME280;44109;52.398;7.024;2023-01-31T00:06:45;102021.44;;;3.01;100.00
58534;BME280;44109;52.398;7.024;2023-01-31T00:09:16;102017.94;;;2.96;100.00
58534;BME280;44109;52.398;7.024;2023-01-31T00:11:44;102011.97;;;2.89;100.00
58534;BME280;44109;52.398;7.024;2023-01-31T00:14:16;102023.47;;;2.91;100.00
58534;BME280;44109;52.398;7.024;2023-01-31T00:16:47;102005.38;;;2.90;100.00
58534;BME280;44109;52.398;7.024;2023-01-31T00:19:14;102020.38;;;2.97;100.00
58534;BME280;44109;52.398;7.024;2023-01-31T00:21:42;102013.22;;;3.01;100.00
58534;BME280;44109;52.398;7.024;2023-01-31T00:24:11;102013.28;;;2.96;100.00
58534;BME280;44109;52.398;7.024;2023-01-31T00:26:39;101982.94;;;2.88;100.00
58534;BME280;44109;52.398;7.024;2023-01-31T00:29:06;101999.84;;;2.95;100.00
58534;BME280;44109;52.398;7.024;2023-01-31T00:31:34;102007.44;;;3.03;100.00
58534;BME280;44109;52.398;7.024;2023-01-31T00:34:03;102003.38;;;3.00;100.00
58534;BME280;44109;52.398;7.024;2023-01-31T00:36:33;102011.78;;;3.09;100.00
58534;BME280;44109;52.398;7.024;2023-01-31T00:39:03;102008.25;;;3.03;100.00
58534;BME280;44109;52.398;7.024;2023-01-31T00:41:32;102012.38;;;3.06;100.00
58534;BME280;44109;52.398;7.024;2023-01-31T00:44:03;101997.75;;;2.87;100.00
58534;BME280;44109;52.398;7.024;2023-01-31T00:46:31;102005.09;;;2.91;100.00
58534;BME280;44109;52.398;7.024;2023-01-31T00:48:59;102012.59;;;2.80;100.00
58534;BME280;44109;52.398;7.024;2023-01-31T00:51:28;102011.56;;;2.71;100.00
58534;BME280;44109;52.398;7.024;2023-01-31T00:53:56;102012.81;;;2.55;100.00
58534;BME280;44109;52.398;7.024;2023-01-31T00:56:24;102022.88;;;2.65;100.00
58534;BME280;44109;52.398;7.024;2023-01-31T00:58:52;101979.53;;;2.38;100.00
58534;BME280;44109;52.398;7.024;2023-01-31T01:01:22;102014.44;;;2.56;100.00
58534;BME280;44109;52.398;7.024;2023-01-31T01:03:53;101926.19;;;1.96;100.00
58534;BME280;44109;52.398;7.024;2023-01-31T01:06:22;102001.34;;;2.48;100.00
58534;BME280;44109;52.398;7.024;2023-01-31T01:08:52;101991.13;;;2.24;100.00
58534;BME280;44109;52.398;7.024;2023-01-31T01:11:25;102006.16;;;2.32;100.00
58534;BME280;44109;52.398;7.024;2023-01-31T01:13:54;102000.19;;;2.20;100.00
58534;BME280;44109;52.398;7.024;2023-01-31T01:16:23;101993.41;;;2.12;100.00
58534;BME280;44109;52.398;7.024;2023-01-31T01:18:52;101995.53;;;2.20;100.00
58534;BME280;44109;52.398;7.024;2023-01-31T01:21:27;101995.41;;;1.96;100.00
58534;BME280;44109;52.398;7.024;2023-01-31T01:24:00;102008.22;;;2.06;100.00
58534;BME280;44109;52.398;7.024;2023-01-31T01:26:30;102006.22;;;2.17;100.00
58534;BME280;44109;52.398;7.024;2023-01-31T01:29:00;102009.25;;;2.15;100.00
58534;BME280;44109;52.398;7.024;2023-01-31T01:31:29;102002.19;;;2.04;100.00
58534;BME280;44109;52.398;7.024;2023-01-31T01:33:59;102008.28;;;1.96;100.00
58534;BME280;44109;52.398;7.024;2023-01-31T01:36:28;102020.81;;;2.02;100.00
58534;BME280;44109;52.398;7.024;2023-01-31T01:39:00;102021.84;;;2.16;100.00
58534;BME280;44109;52.398;7.024;2023-01-31T01:41:29;102025.13;;;2.18;100.00
58534;BME280;44109;52.398;7.024;2023-01-31T01:43:59;102017.47;;;2.15;100.00
58534;BME280;44109;52.398;7.024;2023-01-31T01:46:30;102021.28;;;2.19;100.00
58534;BME280;44109;52.398;7.024;2023-01-31T01:49:03;102027.31;;;2.16;100.00
58534;BME280;44109;52.398;7.024;2023-01-31T01:51:40;102028.94;;;2.17;100.00
58534;BME280;44109;52.398;7.024;2023-01-31T01:54:13;102025.09;;;2.23;100.00
58534;BME280;44109;52.398;7.024;2023-01-31T01:56:46;102033.03;;;2.20;100.00
58534;BME280;44109;52.398;7.024;2023-01-31T01:59:20;102044.22;;;2.28;100.00
58534;BME280;44109;52.398;7.024;2023-01-31T02:01:51;102045.81;;;2.35;100.00
58534;BME280;44109;52.398;7.024;2023-01-31T02:04:25;102040.78;;;2.52;100.00
58534;BME280;44109;52.398;7.024;2023-01-31T02:06:57;102048.88;;;2.67;100.00
58534;BME280;44109;52.398;7.024;2023-01-31T02:09:32;102055.97;;;2.73;100.00
58534;BME280;44109;52.398;7.024;2023-01-31T02:12:05;102045.00;;;2.73;100.00
58534;BME280;44109;52.398;7.024;2023-01-31T02:14:35;102039.72;;;2.82;100.00
58534;BME280;44109;52.398;7.024;2023-01-31T02:17:03;102033.53;;;2.66;100.00
58534;BME280;44109;52.398;7.024;2023-01-31T02:19:37;102049.28;;;2.85;100.00
58534;BME280;44109;52.398;7.024;2023-01-31T02:22:21;102005.66;;;2.59;100.00
58534;BME280;44109;52.398;7.024;2023-01-31T02:25:26;102035.31;;;2.81;100.00
58534;BME280;44109;52.398;7.024;2023-01-31T02:28:39;102030.28;;;2.64;100.00
58534;BME280;44109;52.398;7.024;2023-01-31T02:34:44;102021.09;;;2.79;100.00
58534;BME280;44109;52.398;7.024;2023-01-31T02:37:26;102025.72;;;2.84;100.00
58534;BME280;44109;52.398;7.024;2023-01-31T02:40:07;102017.56;;;2.78;100.00
58534;BME280;44109;52.398;7.024;2023-01-31T02:42:49;102010.91;;;2.85;100.00
58534;BME280;44109;52.398;7.024;2023-01-31T02:45:32;102021.34;;;2.83;100.00
58534;BME280;44109;52.398;7.024;2023-01-31T02:48:11;102007.25;;;2.65;100.00
58534;BME280;44109;52.398;7.024;2023-01-31T02:50:55;102019.94;;;2.56;100.00
58534;BME280;44109;52.398;7.024;2023-01-31T02:53:30;102007.50;;;2.69;100.00
58534;BME280;44109;52.398;7.024;2023-01-31T02:56:04;101987.81;;;2.62;100.00
58534;BME280;44109;52.398;7.024;2023-01-31T02:58:45;102004.88;;;2.88;100.00
58534;BME280;44109;52.398;7.024;2023-01-31T03:01:22;101993.34;;;2.91;100.00
58534;BME280;44109;52.398;7.024;2023-01-31T03:03:57;101998.16;;;2.99;100.00
58534;BME280;44109;52.398;7.024;2023-01-31T03:06:49;101999.66;;;3.15;100.00
58534;BME280;44109;52.398;7.024;2023-01-31T03:09:32;101963.25;;;3.10;100.00
58534;BME280;44109;52.398;7.024;2023-01-31T03:12:28;101977.22;;;3.37;100.00
58534;BME280;44109;52.398;7.024;2023-01-31T03:15:20;101969.97;;;3.46;100.00
58534;BME280;44109;52.398;7.024;2023-01-31T03:18:19;101963.47;;;3.61;100.00
58534;BME280;44109;52.398;7.024;2023-01-31T03:20:55;101963.59;;;3.51;100.00
58534;BME280;44109;52.398;7.024;2023-01-31T03:23:31;101964.56;;;3.60;100.00
58534;BME280;44109;52.398;7.024;2023-01-31T03:26:04;101968.16;;;3.79;100.00
58534;BME280;44109;52.398;7.024;2023-01-31T03:28:34;101958.72;;;3.86;100.00
58534;BME280;44109;52.398;7.024;2023-01-31T03:31:09;101963.25;;;3.76;100.00
58534;BME280;44109;52.398;7.024;2023-01-31T03:33:45;101965.41;;;3.98;100.00
58534;BME280;44109;52.398;7.024;2023-01-31T03:36:22;101949.97;;;3.84;100.00
58534;BME280;44109;52.398;7.024;2023-01-31T03:39:04;101961.03;;;3.78;100.00
58534;BME280;44109;52.398;7.024;2023-01-31T03:41:47;101948.38;;;3.83;100.00
58534;BME280;44109;52.398;7.024;2023-01-31T03:44:28;101948.22;;;3.93;100.00
58534;BME280;44109;52.398;7.024;2023-01-31T03:47:05;101959.34;;;3.83;100.00
58534;BME280;44109;52.398;7.024;2023-01-31T03:49:40;101958.00;;;3.80;100.00
58534;BME280;44109;52.398;7.024;2023-01-31T03:52:11;101949.31;;;3.92;100.00
58534;BME280;44109;52.398;7.024;2023-01-31T03:54:49;101952.81;;;3.78;100.00
58534;BME280;44109;52.398;7.024;2023-01-31T03:57:23;101942.25;;;3.86;100.00
58534;BME280;44109;52.398;7.024;2023-01-31T03:59:57;101954.50;;;3.74;100.00
58534;BME280;44109;52.398;7.024;2023-01-31T04:02:31;101954.75;;;3.78;100.00
58534;BME280;44109;52.398;7.024;2023-01-31T04:05:02;101951.47;;;3.95;100.00
58534;BME280;44109;52.398;7.024;2023-01-31T04:07:35;101950.13;;;3.92;100.00
58534;BME280;44109;52.398;7.024;2023-01-31T04:10:10;101955.13;;;4.09;100.00
58534;BME280;44109;52.398;7.024;2023-01-31T04:12:41;101937.53;;;4.10;100.00
58534;BME280;44109;52.398;7.024;2023-01-31T04:15:09;101904.69;;;3.86;100.00
58534;BME280;44109;52.398;7.024;2023-01-31T04:17:37;101925.78;;;4.23;100.00
58534;BME280;44109;52.398;7.024;2023-01-31T04:20:06;101927.56;;;4.14;100.00
58534;BME280;44109;52.398;7.024;2023-01-31T04:22:35;101928.91;;;3.98;100.00
58534;BME280;44109;52.398;7.024;2023-01-31T04:25:03;101925.03;;;3.99;100.00
58534;BME280;44109;52.398;7.024;2023-01-31T04:27:33;101921.28;;;4.14;100.00
58534;BME280;44109;52.398;7.024;2023-01-31T04:30:01;101912.81;;;4.10;100.00
58534;BME280;44109;52.398;7.024;2023-01-31T04:32:29;101912.13;;;4.18;100.00
58534;BME280;44109;52.398;7.024;2023-01-31T04:34:57;101895.44;;;4.15;100.00
58534;BME280;44109;52.398;7.024;2023-01-31T04:37:24;101886.31;;;4.19;100.00
58534;BME280;44109;52.398;7.024;2023-01-31T04:39:52;101888.28;;;4.32;100.00
58534;BME280;44109;52.398;7.024;2023-01-31T04:42:21;101810.66;;;3.94;100.00
58534;BME280;44109;52.398;7.024;2023-01-31T04:44:48;101872.50;;;4.38;100.00
58534;BME280;44109;52.398;7.024;2023-01-31T04:47:16;101878.59;;;4.35;100.00
58534;BME280;44109;52.398;7.024;2023-01-31T04:49:44;101856.84;;;4.39;100.00
58534;BME280;44109;52.398;7.024;2023-01-31T04:52:11;101865.81;;;4.58;100.00
58534;BME280;44109;52.398;7.024;2023-01-31T04:54:39;101856.84;;;4.39;100.00
58534;BME280;44109;52.398;7.024;2023-01-31T04:57:07;101850.88;;;4.50;100.00
58534;BME280;44109;52.398;7.024;2023-01-31T04:59:36;101849.34;;;4.58;100.00
58534;BME280;44109;52.398;7.024;2023-01-31T05:02:04;101852.50;;;4.65;100.00
58534;BME280;44109;52.398;7.024;2023-01-31T05:04:31;101848.94;;;4.51;100.00
58534;BME280;44109;52.398;7.024;2023-01-31T05:06:59;101794.56;;;4.20;100.00
58534;BME280;44109;52.398;7.024;2023-01-31T05:09:26;101852.41;;;4.70;100.00
58534;BME280;44109;52.398;7.024;2023-01-31T05:11:54;101854.03;;;4.71;100.00
58534;BME280;44109;52.398;7.024;2023-01-31T05:14:21;101832.16;;;4.66;100.00
58534;BME280;44109;52.398;7.024;2023-01-31T05:16:50;101844.28;;;4.65;100.00
58534;BME280;44109;52.398;7.024;2023-01-31T05:19:18;101824.94;;;4.70;100.00
58534;BME280;44109;52.398;7.024;2023-01-31T05:21:46;101817.28;;;4.67;100.00
58534;BME280;44109;52.398;7.024;2023-01-31T05:24:26;101814.97;;;4.74;100.00
58534;BME280;44109;52.398;7.024;2023-01-31T05:26:55;101796.31;;;4.71;100.00
58534;BME280;44109;52.398;7.024;2023-01-31T05:29:25;101790.31;;;4.42;100.00
58534;BME280;44109;52.398;7.024;2023-01-31T05:31:57;101791.53;;;4.63;100.00
58534;BME280;44109;52.398;7.024;2023-01-31T05:34:26;101779.22;;;4.61;100.00
58534;BME280;44109;52.398;7.024;2023-01-31T05:36:58;101807.22;;;4.63;100.00
58534;BME280;44109;52.398;7.024;2023-01-31T05:39:25;101811.09;;;4.62;100.00
58534;BME280;44109;52.398;7.024;2023-01-31T05:41:53;101796.22;;;4.49;100.00
58534;BME280;44109;52.398;7.024;2023-01-31T05:44:22;101802.22;;;4.51;100.00
58534;BME280;44109;52.398;7.024;2023-01-31T05:46:49;101815.28;;;4.59;100.00
58534;BME280;44109;52.398;7.024;2023-01-31T05:49:19;101820.25;;;4.57;100.00
58534;BME280;44109;52.398;7.024;2023-01-31T05:51:46;101817.00;;;4.55;100.00
58534;BME280;44109;52.398;7.024;2023-01-31T05:54:14;101819.00;;;4.49;100.00
58534;BME280;44109;52.398;7.024;2023-01-31T05:56:42;101824.78;;;4.34;100.00
58534;BME280;44109;52.398;7.024;2023-01-31T05:59:09;101829.19;;;4.63;100.00
58534;BME280;44109;52.398;7.024;2023-01-31T06:01:37;101828.09;;;4.50;100.00
58534;BME280;44109;52.398;7.024;2023-01-31T06:04:04;101816.53;;;4.34;100.00
58534;BME280;44109;52.398;7.024;2023-01-31T06:06:33;101807.94;;;4.41;100.00
58534;BME280;44109;52.398;7.024;2023-01-31T06:09:01;101821.81;;;4.30;100.00
58534;BME280;44109;52.398;7.024;2023-01-31T06:11:29;101815.53;;;4.44;100.00
58534;BME280;44109;52.398;7.024;2023-01-31T06:13:56;101826.13;;;4.37;100.00
58534;BME280;44109;52.398;7.024;2023-01-31T06:16:24;101818.19;;;4.49;100.00
58534;BME280;44109;52.398;7.024;2023-01-31T06:18:52;101832.84;;;4.44;100.00
58534;BME280;44109;52.398;7.024;2023-01-31T06:21:20;101819.31;;;4.48;100.00
58534;BME280;44109;52.398;7.024;2023-01-31T06:23:49;101828.09;;;4.64;100.00
58534;BME280;44109;52.398;7.024;2023-01-31T06:26:17;101805.38;;;4.58;100.00
58534;BME280;44109;52.398;7.024;2023-01-31T06:28:44;101818.19;;;4.63;100.00
58534;BME280;44109;52.398;7.024;2023-01-31T06:31:12;101815.53;;;4.44;100.00
58534;BME280;44109;52.398;7.024;2023-01-31T06:33:40;101806.91;;;4.64;100.00
58534;BME280;44109;52.398;7.024;2023-01-31T06:36:08;101786.13;;;4.58;100.00
58534;BME280;44109;52.398;7.024;2023-01-31T06:38:35;101793.06;;;4.55;100.00
58534;BME280;44109;52.398;7.024;2023-01-31T06:41:04;101798.56;;;4.69;100.00
58534;BME280;44109;52.398;7.024;2023-01-31T06:43:32;101773.31;;;4.67;100.00
58534;BME280;44109;52.398;7.024;2023-01-31T06:46:00;101779.94;;;4.66;100.00
58534;BME280;44109;52.398;7.024;2023-01-31T06:48:27;101777.47;;;4.92;100.00
58534;BME280;44109;52.398;7.024;2023-01-31T06:50:55;101784.91;;;4.92;100.00
58534;BME280;44109;52.398;7.024;2023-01-31T06:53:22;101788.88;;;4.86;100.00
58534;BME280;44109;52.398;7.024;2023-01-31T06:55:50;101781.66;;;4.90;100.00
58534;BME280;44109;52.398;7.024;2023-01-31T06:58:19;101775.25;;;4.80;100.00
58534;BME280;44109;52.398;7.024;2023-01-31T07:00:47;101751.03;;;4.69;100.00
58534;BME280;44109;52.398;7.024;2023-01-31T07:03:14;101780.72;;;4.80;100.00
58534;BME280;44109;52.398;7.024;2023-01-31T07:05:44;101757.66;;;4.81;100.00
58534;BME280;44109;52.398;7.024;2023-01-31T07:08:13;101770.16;;;4.88;100.00
58534;BME280;44109;52.398;7.024;2023-01-31T07:10:41;101760.97;;;5.06;100.00
58534;BME280;44109;52.398;7.024;2023-01-31T07:13:08;101753.19;;;5.08;100.00
58534;BME280;44109;52.398;7.024;2023-01-31T07:15:37;101758.69;;;5.08;100.00
58534;BME280;44109;52.398;7.024;2023-01-31T07:18:05;101746.31;;;4.97;100.00
58534;BME280;44109;52.398;7.024;2023-01-31T07:20:33;101753.72;;;5.10;100.00
58534;BME280;44109;52.398;7.024;2023-01-31T07:23:00;101757.13;;;5.29;100.00
58534;BME280;44109;52.398;7.024;2023-01-31T07:25:28;101746.84;;;5.21;100.00
58534;BME280;44109;52.398;7.024;2023-01-31T07:27:57;101750.25;;;5.18;100.00
58534;BME280;44109;52.398;7.024;2023-01-31T07:30:24;101740.72;;;5.24;100.00
58534;BME280;44109;52.398;7.024;2023-01-31T07:32:54;101759.19;;;5.24;100.00
58534;BME280;44109;52.398;7.024;2023-01-31T07:35:22;101746.63;;;5.31;100.00
58534;BME280;44109;52.398;7.024;2023-01-31T07:37:51;101730.13;;;5.31;100.00
58534;BME280;44109;52.398;7.024;2023-01-31T07:40:19;101728.00;;;5.28;100.00
58534;BME280;44109;52.398;7.024;2023-01-31T07:42:47;101737.28;;;5.19;100.00
58534;BME280;44109;52.398;7.024;2023-01-31T07:45:15;101737.09;;;5.15;100.00
58534;BME280;44109;52.398;7.024;2023-01-31T07:47:42;101730.34;;;5.21;100.00
58534;BME280;44109;52.398;7.024;2023-01-31T07:50:12;101722.75;;;5.41;100.00
58534;BME280;44109;52.398;7.024;2023-01-31T07:52:39;101705.56;;;4.99;100.00
58534;BME280;44109;52.398;7.024;2023-01-31T08:03:24;101700.09;;;5.21;100.00
58534;BME280;44109;52.398;7.024;2023-01-31T08:06:02;101705.34;;;5.54;100.00
58534;BME280;44109;52.398;7.024;2023-01-31T08:08:32;101699.75;;;5.37;100.00
58534;BME280;44109;52.398;7.024;2023-01-31T08:11:01;101697.94;;;5.63;100.00
58534;BME280;44109;52.398;7.024;2023-01-31T08:13:30;101690.97;;;5.57;100.00
58534;BME280;44109;52.398;7.024;2023-01-31T08:15:57;101691.03;;;5.43;100.00
58534;BME280;44109;52.398;7.024;2023-01-31T08:18:25;101685.47;;;5.34;100.00
58534;BME280;44109;52.398;7.024;2023-01-31T08:20:53;101682.09;;;5.60;100.00
58534;BME280;44109;52.398;7.024;2023-01-31T08:23:25;101649.75;;;5.43;100.00
58534;BME280;44109;52.398;7.024;2023-01-31T08:25:59;101660.78;;;5.74;100.00
58534;BME280;44109;52.398;7.024;2023-01-31T08:28:28;101658.34;;;5.42;100.00
58534;BME280;44109;52.398;7.024;2023-01-31T08:30:56;101659.97;;;5.43;100.00
58534;BME280;44109;52.398;7.024;2023-01-31T08:33:24;101660.50;;;5.53;100.00
58534;BME280;44109;52.398;7.024;2023-01-31T08:35:52;101660.94;;;5.69;100.00
58534;BME280;44109;52.398;7.024;2023-01-31T08:38:20;101634.81;;;5.35;100.00
58534;BME280;44109;52.398;7.024;2023-01-31T08:40:49;101667.94;;;5.30;100.00
58534;BME280;44109;52.398;7.024;2023-01-31T08:43:17;101661.81;;;5.56;100.00
58534;BME280;44109;52.398;7.024;2023-01-31T08:45:44;101663.56;;;5.52;100.00
58534;BME280;44109;52.398;7.024;2023-01-31T08:48:12;101662.50;;;5.62;100.00
58534;BME280;44109;52.398;7.024;2023-01-31T08:50:39;101655.09;;;5.71;100.00
58534;BME280;44109;52.398;7.024;2023-01-31T08:53:08;101649.09;;;5.69;100.00
58534;BME280;44109;52.398;7.024;2023-01-31T08:55:35;101640.81;;;5.60;100.00
58534;BME280;44109;52.398;7.024;2023-01-31T08:58:05;101636.06;;;5.52;100.00
58534;BME280;44109;52.398;7.024;2023-01-31T09:00:33;101643.00;;;5.49;100.00
58534;BME280;44109;52.398;7.024;2023-01-31T09:03:00;101641.28;;;5.62;100.00
58534;BME280;44109;52.398;7.024;2023-01-31T09:05:30;101647.97;;;5.70;100.00
58534;BME280;44109;52.398;7.024;2023-01-31T09:07:58;101634.97;;;5.62;100.00
58534;BME280;44109;52.398;7.024;2023-01-31T09:12:59;101633.22;;;5.66;100.00
58534;BME280;44109;52.398;7.024;2023-01-31T09:15:28;101636.50;;;5.76;100.00
58534;BME280;44109;52.398;7.024;2023-01-31T09:20:33;101636.13;;;5.92;100.00
58534;BME280;44109;52.398;7.024;2023-01-31T09:28:14;101632.59;;;6.00;100.00
58534;BME280;44109;52.398;7.024;2023-01-31T09:30:43;101635.53;;;5.81;100.00
58534;BME280;44109;52.398;7.024;2023-01-31T09:33:10;101641.22;;;5.84;100.00
58534;BME280;44109;52.398;7.024;2023-01-31T09:35:38;101647.06;;;5.83;100.00
58534;BME280;44109;52.398;7.024;2023-01-31T09:38:05;101637.59;;;5.98;100.00
58534;BME280;44109;52.398;7.024;2023-01-31T09:40:36;101648.28;;;5.99;100.00
58534;BME280;44109;52.398;7.024;2023-01-31T09:43:09;101655.81;;;5.85;100.00
58534;BME280;44109;52.398;7.024;2023-01-31T09:45:39;101636.19;;;5.78;100.00
58534;BME280;44109;52.398;7.024;2023-01-31T09:48:16;101638.28;;;5.72;100.00
58534;BME280;44109;52.398;7.024;2023-01-31T09:50:49;101637.63;;;5.75;100.00
58534;BME280;44109;52.398;7.024;2023-01-31T09:53:22;101638.63;;;5.79;100.00
58534;BME280;44109;52.398;7.024;2023-01-31T09:56:19;101638.88;;;5.92;100.00
58534;BME280;44109;52.398;7.024;2023-01-31T09:59:00;101614.44;;;5.99;100.00
58534;BME280;44109;52.398;7.024;2023-01-31T10:01:39;101634.78;;;5.89;100.00
58534;BME280;44109;52.398;7.024;2023-01-31T10:04:22;101619.59;;;5.92;100.00
58534;BME280;44109;52.398;7.024;2023-01-31T10:07:14;101620.28;;;6.06;100.00
58534;BME280;44109;52.398;7.024;2023-01-31T10:09:50;101611.03;;;6.02;100.00
58534;BME280;44109;52.398;7.024;2023-01-31T10:12:24;101607.84;;;6.17;100.00
58534;BME280;44109;52.398;7.024;2023-01-31T10:14:59;101610.06;;;5.98;100.00
58534;BME280;44109;52.398;7.024;2023-01-31T10:17:34;101559.34;;;5.99;100.00
58534;BME280;44109;52.398;7.024;2023-01-31T10:20:12;101587.94;;;6.20;100.00
58534;BME280;44109;52.398;7.024;2023-01-31T10:22:50;101589.25;;;6.31;100.00
58534;BME280;44109;52.398;7.024;2023-01-31T10:25:26;101588.44;;;6.40;100.00
58534;BME280;44109;52.398;7.024;2023-01-31T10:28:01;101592.63;;;6.20;100.00
58534;BME280;44109;52.398;7.024;2023-01-31T10:30:40;101596.84;;;6.26;100.00
58534;BME280;44109;52.398;7.024;2023-01-31T10:33:22;101604.00;;;6.35;100.00
58534;BME280;44109;52.398;7.024;2023-01-31T10:36:00;101587.59;;;6.22;100.00
58534;BME280;44109;52.398;7.024;2023-01-31T10:38:34;101574.66;;;6.31;100.00
58534;BME280;44109;52.398;7.024;2023-01-31T10:41:14;101575.94;;;6.25;100.00
58534;BME280;44109;52.398;7.024;2023-01-31T10:43:51;101585.78;;;6.08;100.00
58534;BME280;44109;52.398;7.024;2023-01-31T10:46:24;101585.16;;;6.20;100.00
58534;BME280;44109;52.398;7.024;2023-01-31T10:48:53;101573.84;;;6.30;100.00
58534;BME280;44109;52.398;7.024;2023-01-31T10:51:44;101576.34;;;5.92;100.00
58534;BME280;44109;52.398;7.024;2023-01-31T10:54:29;101575.75;;;6.21;100.00
58534;BME280;44109;52.398;7.024;2023-01-31T10:57:08;101568.47;;;6.17;100.00
58534;BME280;44109;52.398;7.024;2023-01-31T10:59:38;101563.28;;;6.15;100.00
58534;BME280;44109;52.398;7.024;2023-01-31T11:02:14;101551.94;;;6.25;100.00
58534;BME280;44109;52.398;7.024;2023-01-31T11:04:49;101539.78;;;6.09;100.00
58534;BME280;44109;52.398;7.024;2023-01-31T11:07:18;101556.03;;;6.37;100.00
58534;BME280;44109;52.398;7.024;2023-01-31T11:09:49;101565.75;;;6.43;100.00
58534;BME280;44109;52.398;7.024;2023-01-31T11:12:19;101555.22;;;6.27;100.00
58534;BME280;44109;52.398;7.024;2023-01-31T11:15:04;101558.63;;;6.33;100.00
58534;BME280;44109;52.398;7.024;2023-01-31T11:17:35;101557.78;;;6.24;100.00
58534;BME280;44109;52.398;7.024;2023-01-31T11:20:18;101560.06;;;6.30;100.00
58534;BME280;44109;52.398;7.024;2023-01-31T11:22:51;101563.13;;;6.20;100.00
58534;BME280;44109;52.398;7.024;2023-01-31T11:25:21;101562.34;;;6.28;100.00
58534;BME280;44109;52.398;7.024;2023-01-31T11:27:52;101561.03;;;6.26;100.00
58534;BME280;44109;52.398;7.024;2023-01-31T11:30:26;101551.66;;;6.27;100.00
58534;BME280;44109;52.398;7.024;2023-01-31T11:32:56;101554.66;;;6.08;100.00
58534;BME280;44109;52.398;7.024;2023-01-31T11:35:27;101547.22;;;6.17;100.00
58534;BME280;44109;52.398;7.024;2023-01-31T11:37:57;101547.22;;;6.17;100.00
58534;BME280;44109;52.398;7.024;2023-01-31T11:40:29;101540.06;;;5.99;100.00
58534;BME280;44109;52.398;7.024;2023-01-31T11:43:00;101539.31;;;6.24;100.00
58534;BME280;44109;52.398;7.024;2023-01-31T11:45:30;101513.53;;;6.12;100.00
58534;BME280;44109;52.398;7.024;2023-01-31T11:48:05;101515.66;;;6.32;100.00
58534;BME280;44109;52.398;7.024;2023-01-31T11:50:39;101518.59;;;6.27;100.00
58534;BME280;44109;52.398;7.024;2023-01-31T11:53:16;101513.56;;;6.29;100.00
58534;BME280;44109;52.398;7.024;2023-01-31T11:55:48;101496.66;;;6.13;100.00
58534;BME280;44109;52.398;7.024;2023-01-31T11:58:20;101503.84;;;6.31;100.00
58534;BME280;44109;52.398;7.024;2023-01-31T12:00:52;101514.88;;;6.31;100.00
58534;BME280;44109;52.398;7.024;2023-01-31T12:03:23;101507.06;;;6.33;100.00
58534;BME280;44109;52.398;7.024;2023-01-31T12:06:01;101499.44;;;6.39;100.00
58534;BME280;44109;52.398;7.024;2023-01-31T12:08:31;101489.88;;;6.19;100.00
58534;BME280;44109;52.398;7.024;2023-01-31T12:11:04;101501.88;;;6.23;100.00
58534;BME280;44109;52.398;7.024;2023-01-31T12:13:45;101502.88;;;6.27;100.00
58534;BME280;44109;52.398;7.024;2023-01-31T12:16:18;101477.25;;;6.18;100.00
58534;BME280;44109;52.398;7.024;2023-01-31T12:18:59;101495.06;;;6.29;100.00
58534;BME280;44109;52.398;7.024;2023-01-31T12:21:48;101498.34;;;6.31;100.00
58534;BME280;44109;52.398;7.024;2023-01-31T12:24:27;101495.41;;;6.28;100.00
58534;BME280;44109;52.398;7.024;2023-01-31T12:27:16;101503.50;;;6.24;100.00
58534;BME280;44109;52.398;7.024;2023-01-31T12:30:12;101499.59;;;6.25;100.00
58534;BME280;44109;52.398;7.024;2023-01-31T12:33:00;101501.53;;;6.16;100.00
58534;BME280;44109;52.398;7.024;2023-01-31T12:35:46;101506.91;;;6.30;100.00
58534;BME280;44109;52.398;7.024;2023-01-31T12:38:42;101497.50;;;6.40;100.00
58534;BME280;44109;52.398;7.024;2023-01-31T12:41:32;101500.59;;;6.38;100.00
58534;BME280;44109;52.398;7.024;2023-01-31T12:44:15;101501.88;;;6.49;100.00
58534;BME280;44109;52.398;7.024;2023-01-31T12:47:21;101503.19;;;6.34;100.00
58534;BME280;44109;52.398;7.024;2023-01-31T12:50:29;101484.69;;;6.52;100.00
58534;BME280;44109;52.398;7.024;2023-01-31T12:53:19;101494.75;;;6.57;100.00
58534;BME280;44109;52.398;7.024;2023-01-31T12:56:13;101488.94;;;6.50;100.00
58534;BME280;44109;52.398;7.024;2023-01-31T12:58:58;101496.06;;;6.51;100.00
58534;BME280;44109;52.398;7.024;2023-01-31T13:01:38;101478.03;;;6.53;100.00
58534;BME280;44109;52.398;7.024;2023-01-31T13:04:35;101446.28;;;6.47;100.00
58534;BME280;44109;52.398;7.024;2023-01-31T13:07:10;101453.91;;;6.59;100.00
58534;BME280;44109;52.398;7.024;2023-01-31T13:09:49;101459.88;;;6.70;100.00
58534;BME280;44109;52.398;7.024;2023-01-31T13:12:26;101460.31;;;6.80;100.00
58534;BME280;44109;52.398;7.024;2023-01-31T13:15:02;101466.00;;;6.84;100.00
58534;BME280;44109;52.398;7.024;2023-01-31T13:17:37;101456.03;;;7.09;100.00
58534;BME280;44109;52.398;7.024;2023-01-31T13:20:20;101449.66;;;7.17;100.00
58534;BME280;44109;52.398;7.024;2023-01-31T13:22:55;101458.06;;;7.21;100.00
58534;BME280;44109;52.398;7.024;2023-01-31T13:25:34;101464.63;;;7.46;100.00
58534;BME280;44109;52.398;7.024;2023-01-31T13:28:12;101472.44;;;7.44;100.00
58534;BME280;44109;52.398;7.024;2023-01-31T13:30:49;101457.59;;;7.27;100.00
58534;BME280;44109;52.398;7.024;2023-01-31T13:33:28;101448.16;;;7.28;100.00
58534;BME280;44109;52.398;7.024;2023-01-31T13:36:15;101444.75;;;7.31;100.00
58534;BME280;44109;52.398;7.024;2023-01-31T13:38:50;101465.00;;;7.35;100.00
58534;BME280;44109;52.398;7.024;2023-01-31T13:41:24;101467.00;;;7.56;100.00
58534;BME280;44109;52.398;7.024;2023-01-31T13:43:57;101454.41;;;7.46;100.00